KCEU

Oconee County Regional Airport

Clemson, South Carolina, USA
METAR KCEU 171510Z AUTO VRB03KT 10SM SCT013 BKN090 26/22 A3004 RMK AO2 T02560222
Observed Flight Rules
Jul-17 @ 15:10 UTC (37 minutes ago) Visual Flight Rules
Wind Visibility Clouds
Variable at 3 knots 10 miles
  • Scattered at 1,300' AGL
  • Broken at 9,000' AGL
Temperatures Readings
Current 26°C / 79°F
Dewpoint 22°C / 72°F
Humidity 79%
Altimeter 30.04" Hg
Pressure 1017 hPa
Elevation 268
METAR KCEU 171510Z AUTO VRB03KT 10SM SCT013 BKN090 26/22 A3004 RMK AO2 T02560222
Observed Flight Rules
Jul-17 @ 15:10 UTC
(37 minutes ago)
VFR
Wind Visibility
Variable at 3 knots 10 miles
Clouds
  • Scattered at 1,300' AGL
  • Broken at 9,000' AGL
Temperature Dewpoint
26°C / 79°F 22°C / 72°F
Humidity Altimeter Pressure
79% 30.04" Hg 1017 hPa